createdAt,value
2019-05-15T00:02:12.672Z,66.36
2019-05-15T00:04:39.968Z,66.17
2019-05-15T00:07:08.932Z,66.42
2019-05-15T00:09:39.604Z,66.57
2019-05-15T00:12:04.911Z,66.88
2019-05-15T00:14:32.178Z,67.28
2019-05-15T00:16:59.225Z,67.22
2019-05-15T00:19:28.451Z,66.89
2019-05-15T00:21:55.295Z,67.25
2019-05-15T00:24:22.614Z,67.28
2019-05-15T00:29:31.239Z,67.68
2019-05-15T00:31:58.988Z,67.72
2019-05-15T00:34:28.439Z,67.78
2019-05-15T00:36:58.279Z,67.98
2019-05-15T00:39:25.095Z,68.09
2019-05-15T00:41:54.750Z,68.51
2019-05-15T00:44:20.934Z,68.57
2019-05-15T00:46:48.817Z,68.70
2019-05-15T00:49:16.162Z,69.01
2019-05-15T00:51:43.457Z,69.33
2019-05-15T00:54:10.742Z,69.38
2019-05-15T00:56:39.111Z,69.51
2019-05-15T00:59:08.392Z,69.83
2019-05-15T01:01:35.186Z,69.66
2019-05-15T01:04:02.465Z,69.69
2019-05-15T01:06:29.776Z,69.95
2019-05-15T01:08:58.799Z,70.26
2019-05-15T01:11:25.794Z,70.53
2019-05-15T01:13:52.834Z,70.80
2019-05-15T01:16:19.860Z,70.84
2019-05-15T01:18:49.187Z,71.49
2019-05-15T01:21:15.960Z,71.52
2019-05-15T01:23:43.243Z,71.34
2019-05-15T01:26:10.271Z,71.68
2019-05-15T01:28:38.350Z,71.64
2019-05-15T01:31:05.605Z,72.13
2019-05-15T01:33:32.913Z,72.09
2019-05-15T01:36:00.201Z,72.32
2019-05-15T01:38:28.082Z,72.62
2019-05-15T01:40:55.349Z,72.73
2019-05-15T01:43:22.659Z,72.92
2019-05-15T01:45:49.690Z,73.05
2019-05-15T01:48:18.851Z,73.18
2019-05-15T01:50:45.729Z,73.46
2019-05-15T01:53:12.777Z,73.45
2019-05-15T01:55:39.872Z,73.59
2019-05-15T01:58:09.102Z,73.94
2019-05-15T02:00:35.927Z,74.11
2019-05-15T02:03:02.984Z,74.34
2019-05-15T02:05:30.007Z,74.60
2019-05-15T02:07:58.598Z,74.29
2019-05-15T02:10:25.733Z,74.45
2019-05-15T02:12:53.036Z,74.49
2019-05-15T02:15:20.310Z,74.50
2019-05-15T02:17:48.137Z,74.48
2019-05-15T02:20:15.225Z,74.74
2019-05-15T02:22:42.762Z,74.85
2019-05-15T02:25:10.241Z,75.24
2019-05-15T02:27:39.355Z,75.20
2019-05-15T02:30:17.956Z,75.45
2019-05-15T02:32:39.520Z,75.46
2019-05-15T02:35:05.360Z,75.89
2019-05-15T02:37:32.370Z,75.95
2019-05-15T02:39:59.662Z,75.86
2019-05-15T02:42:28.982Z,75.87
2019-05-15T02:44:58.499Z,76.15
2019-05-15T02:47:24.404Z,76.04
2019-05-15T02:49:51.598Z,75.94
2019-05-15T02:52:19.922Z,76.08
2019-05-15T02:54:49.795Z,76.09
2019-05-15T02:57:19.070Z,75.88
2019-05-15T02:59:44.874Z,76.04
2019-05-15T03:02:11.891Z,75.87
2019-05-15T03:04:40.041Z,75.74
2019-05-15T03:07:09.611Z,76.11
2019-05-15T03:09:39.874Z,76.21
2019-05-15T03:12:08.913Z,76.24
2019-05-15T03:14:35.001Z,76.10
2019-05-15T03:17:02.288Z,76.14
2019-05-15T03:19:30.077Z,76.33
2019-05-15T03:21:59.850Z,76.42
2019-05-15T03:24:28.912Z,76.44
2019-05-15T03:26:54.996Z,76.18
2019-05-15T03:29:22.100Z,76.20
2019-05-15T03:32:06.092Z,76.32
2019-05-15T03:34:27.474Z,76.12
2019-05-15T03:36:52.908Z,75.80
2019-05-15T03:39:18.966Z,75.64
2019-05-15T03:41:46.176Z,75.50
2019-05-15T03:44:13.462Z,75.74
2019-05-15T03:46:40.744Z,75.44
2019-05-15T03:49:08.675Z,75.32
2019-05-15T03:51:39.913Z,74.71
2019-05-15T03:54:04.821Z,73.15
2019-05-15T03:56:31.857Z,71.66
2019-05-15T04:02:01.997Z,68.46
2019-05-15T04:04:31.641Z,64.39
2019-05-15T04:06:59.732Z,61.86
2019-05-15T04:09:29.429Z,59.77
2019-05-15T04:11:59.801Z,57.43
2019-05-15T04:14:25.652Z,54.38
2019-05-15T04:16:52.936Z,52.12
2019-05-15T04:19:20.256Z,50.35
2019-05-15T04:21:49.451Z,49.29
2019-05-15T04:24:19.037Z,46.41
2019-05-15T04:26:48.461Z,42.99
2019-05-15T04:29:14.404Z,41.10
2019-05-15T04:31:56.369Z,38.22
2019-05-15T04:34:10.658Z,37.76
2019-05-15T04:36:39.523Z,34.37
2019-05-15T04:39:09.670Z,35.23
2019-05-15T04:41:35.783Z,34.12
2019-05-15T04:44:04.460Z,34.71
2019-05-15T04:46:31.517Z,35.28
2019-05-15T04:48:59.601Z,35.90
2019-05-15T04:51:30.332Z,34.91
2019-05-15T04:53:58.579Z,35.40
2019-05-15T04:56:24.872Z,36.03
2019-05-15T04:58:51.905Z,36.00
2019-05-15T05:01:20.267Z,35.81
2019-05-15T05:03:49.542Z,36.21
2019-05-15T05:06:19.136Z,37.41
2019-05-15T05:08:49.068Z,37.92
2019-05-15T05:11:15.540Z,39.83
2019-05-15T05:13:42.857Z,42.36
2019-05-15T05:16:10.211Z,44.61
2019-05-15T05:18:41.105Z,46.01
2019-05-15T05:21:07.714Z,47.71
2019-05-15T05:23:34.942Z,49.66
2019-05-15T05:26:02.315Z,49.49
2019-05-15T05:28:30.417Z,49.41
2019-05-15T05:30:58.791Z,48.36
2019-05-15T05:33:28.439Z,47.53
2019-05-15T05:35:58.164Z,47.31
2019-05-15T05:38:24.802Z,47.13
2019-05-15T05:40:52.158Z,45.65
2019-05-15T05:43:19.207Z,45.88
2019-05-15T05:45:48.991Z,43.85
2019-05-15T05:48:15.307Z,40.14
2019-05-15T05:50:44.412Z,38.07
2019-05-15T05:53:11.802Z,35.67
2019-05-15T05:55:38.838Z,32.66
2019-05-15T05:58:08.021Z,31.21
2019-05-15T06:00:34.945Z,32.51
2019-05-15T06:03:03.372Z,30.90
2019-05-15T06:05:30.731Z,33.20
2019-05-15T06:07:58.235Z,34.06
2019-05-15T06:10:25.296Z,33.50
2019-05-15T06:12:52.708Z,34.58
2019-05-15T06:15:19.744Z,35.06
2019-05-15T06:17:48.138Z,33.99
2019-05-15T06:20:15.576Z,33.42
2019-05-15T06:22:42.929Z,32.29
2019-05-15T06:25:11.270Z,31.64
2019-05-15T06:27:39.351Z,31.87
2019-05-15T06:30:08.806Z,31.11
2019-05-15T06:32:35.505Z,29.17
2019-05-15T06:35:02.535Z,29.33
2019-05-15T06:37:29.754Z,31.28
2019-05-15T06:39:58.792Z,29.59
2019-05-15T06:42:28.338Z,32.81
2019-05-15T06:44:54.750Z,34.76
2019-05-15T06:47:22.112Z,34.63
2019-05-15T06:49:49.485Z,35.53
2019-05-15T06:52:18.120Z,34.97
2019-05-15T06:54:45.615Z,33.62
2019-05-15T06:57:12.665Z,35.04
2019-05-15T06:59:40.019Z,35.46
2019-05-15T07:02:08.069Z,35.72
2019-05-15T07:04:35.182Z,37.79
2019-05-15T07:07:02.498Z,38.37
2019-05-15T07:09:29.551Z,36.76
2019-05-15T07:11:58.888Z,40.12
2019-05-15T07:14:25.683Z,39.43
2019-05-15T07:16:52.724Z,39.52
2019-05-15T07:19:20.088Z,41.12
2019-05-15T07:21:48.676Z,41.24
2019-05-15T07:24:18.057Z,39.45
2019-05-15T07:26:45.030Z,40.96
2019-05-15T07:29:12.075Z,40.22
2019-05-15T07:31:39.422Z,40.51
2019-05-15T07:34:08.353Z,40.11
2019-05-15T07:36:35.594Z,40.70
2019-05-15T07:39:02.922Z,40.81
2019-05-15T07:41:30.395Z,40.05
2019-05-15T07:43:58.585Z,37.50
2019-05-15T07:46:25.753Z,38.87
2019-05-15T07:48:53.057Z,37.20
2019-05-15T07:51:20.435Z,36.03
2019-05-15T07:53:48.918Z,34.66
2019-05-15T07:56:18.153Z,37.94
2019-05-15T07:58:45.337Z,37.05
2019-05-15T08:01:12.704Z,36.62
2019-05-15T08:03:55.332Z,35.65
2019-05-15T08:06:09.008Z,34.67
2019-05-15T08:08:36.125Z,34.63
2019-05-15T08:11:16.107Z,36.30
2019-05-15T08:13:31.909Z,34.96
2019-05-15T08:15:58.947Z,35.95
2019-05-15T08:18:28.417Z,35.36
2019-05-15T08:20:54.733Z,36.15
2019-05-15T08:23:23.104Z,36.68
2019-05-15T08:25:50.449Z,36.51
2019-05-15T08:28:19.109Z,36.84
2019-05-15T08:30:48.973Z,34.71
2019-05-15T08:33:14.966Z,35.01
2019-05-15T08:35:45.867Z,35.71
2019-05-15T08:38:14.129Z,34.93
2019-05-15T08:40:41.070Z,34.95
2019-05-15T08:43:11.377Z,35.13
2019-05-15T08:45:39.142Z,35.85
2019-05-15T08:48:05.847Z,35.63
2019-05-15T08:50:33.151Z,36.10
2019-05-15T08:53:00.188Z,36.02
2019-05-15T08:55:28.158Z,37.54
2019-05-15T08:58:04.191Z,37.09
2019-05-15T09:00:24.459Z,37.36
2019-05-15T09:02:51.500Z,37.06
2019-05-15T09:05:18.872Z,35.95
2019-05-15T09:07:48.460Z,36.07
2019-05-15T09:10:15.148Z,38.25
2019-05-15T09:12:42.441Z,39.10
2019-05-15T09:15:09.494Z,36.27
2019-05-15T09:17:39.601Z,38.72
2019-05-15T09:20:05.277Z,37.15
2019-05-15T09:22:32.318Z,36.25
2019-05-15T09:24:59.367Z,37.91
2019-05-15T09:27:27.886Z,37.21
2019-05-15T09:29:55.029Z,38.71
2019-05-15T09:32:22.357Z,37.90
2019-05-15T09:34:54.904Z,37.94
2019-05-15T09:37:18.410Z,36.82
2019-05-15T09:39:45.866Z,37.88
2019-05-15T09:42:13.203Z,37.34
2019-05-15T09:44:40.257Z,37.60
2019-05-15T09:47:09.186Z,36.27
2019-05-15T09:49:38.963Z,36.56
2019-05-15T09:52:08.822Z,35.18
2019-05-15T09:54:35.205Z,35.95
2019-05-15T09:57:02.560Z,35.88
2019-05-15T09:59:30.017Z,34.22
2019-05-15T10:01:58.923Z,36.58
2019-05-15T10:04:28.482Z,35.43
2019-05-15T10:06:54.864Z,34.34
2019-05-15T10:09:22.206Z,35.65
2019-05-15T10:11:49.427Z,35.61
2019-05-15T10:14:19.267Z,35.65
2019-05-15T10:16:45.699Z,34.45
2019-05-15T10:19:12.738Z,35.06
2019-05-15T10:21:40.308Z,36.15
2019-05-15T10:24:09.482Z,37.39
2019-05-15T10:26:36.350Z,38.20
2019-05-15T10:29:03.391Z,37.85
2019-05-15T10:31:30.778Z,35.44
2019-05-15T10:33:58.273Z,34.69
2019-05-15T10:36:27.842Z,35.78
2019-05-15T10:38:54.301Z,35.17
2019-05-15T10:41:21.611Z,35.53
2019-05-15T10:43:55.973Z,36.79
2019-05-15T10:46:18.996Z,35.29
2019-05-15T10:48:49.009Z,33.82
2019-05-15T10:51:15.183Z,33.21
2019-05-15T10:53:42.494Z,31.47
2019-05-15T10:56:09.790Z,33.07
2019-05-15T10:58:38.935Z,34.12
2019-05-15T11:01:05.602Z,36.39
2019-05-15T11:03:35.076Z,35.25
2019-05-15T11:06:02.023Z,36.06
2019-05-15T11:08:29.208Z,33.55
2019-05-15T11:10:58.535Z,31.32
2019-05-15T11:13:25.621Z,32.65
2019-05-15T11:15:52.678Z,30.53
2019-05-15T11:18:19.715Z,30.26
2019-05-15T11:20:48.767Z,28.55
2019-05-15T11:23:15.506Z,26.84
2019-05-15T11:25:42.560Z,26.48
2019-05-15T11:28:09.595Z,25.52
2019-05-15T11:30:39.300Z,24.71
2019-05-15T11:33:05.689Z,25.98
2019-05-15T11:35:33.064Z,25.80
2019-05-15T11:38:00.102Z,25.60
2019-05-15T11:40:28.356Z,28.61
2019-05-15T11:42:55.480Z,31.33
2019-05-15T11:45:22.879Z,34.50
2019-05-15T11:47:49.933Z,33.67
2019-05-15T11:50:20.022Z,32.51
2019-05-15T11:52:46.067Z,29.78
2019-05-15T11:55:13.107Z,28.79
2019-05-15T11:57:46.794Z,29.42
2019-05-15T12:00:14.587Z,31.16
2019-05-15T12:02:38.559Z,32.78
2019-05-15T12:05:05.713Z,33.87
2019-05-15T12:07:34.089Z,33.74
2019-05-15T12:10:01.120Z,32.18
2019-05-15T12:12:31.468Z,30.57
2019-05-15T12:14:57.281Z,30.39
2019-05-15T12:17:24.651Z,31.97
2019-05-15T12:19:58.393Z,30.88
2019-05-15T12:22:20.738Z,30.27
2019-05-15T12:24:49.898Z,29.42
2019-05-15T12:27:18.393Z,26.28
2019-05-15T12:29:48.973Z,27.12
2019-05-15T12:32:26.456Z,26.37
2019-05-15T12:34:44.843Z,25.57
2019-05-15T12:37:12.215Z,25.44
2019-05-15T12:39:40.898Z,27.56
2019-05-15T13:01:59.147Z,30.95
2019-05-15T13:04:28.428Z,32.09
2019-05-15T13:07:12.372Z,34.13
2019-05-15T13:09:24.011Z,33.57
2019-05-15T13:11:51.306Z,34.55
2019-05-15T13:14:18.838Z,34.22
2019-05-15T13:16:48.017Z,32.14
2019-05-15T13:19:15.548Z,33.65
2019-05-15T13:21:42.586Z,33.27
2019-05-15T13:24:09.955Z,32.90
2019-05-15T13:26:38.492Z,34.11
2019-05-15T13:29:05.740Z,34.33
2019-05-15T13:31:33.040Z,33.90
2019-05-15T13:34:00.093Z,34.78
2019-05-15T13:36:28.918Z,36.41
2019-05-15T13:38:57.859Z,35.99
2019-05-15T13:41:25.045Z,35.78
2019-05-15T13:43:52.378Z,35.89
2019-05-15T13:46:20.895Z,35.48
2019-05-15T13:48:49.080Z,35.99
2019-05-15T13:51:18.221Z,36.28
2019-05-15T13:53:45.895Z,36.74
2019-05-15T13:56:13.272Z,37.49
2019-05-15T13:58:40.314Z,36.13
2019-05-15T14:01:09.477Z,36.97
2019-05-15T14:03:38.866Z,38.21
2019-05-15T14:06:05.193Z,35.21
2019-05-15T14:08:33.318Z,35.32
2019-05-15T14:11:00.673Z,35.69
2019-05-15T14:13:28.758Z,37.50
2019-05-15T14:15:58.223Z,35.96
2019-05-15T14:18:25.140Z,36.14
2019-05-15T14:20:52.165Z,36.25
2019-05-15T14:23:19.229Z,36.74
2019-05-15T14:25:48.253Z,36.32
2019-05-15T14:28:15.322Z,37.97
2019-05-15T14:30:42.398Z,37.64
2019-05-15T14:33:09.421Z,38.62
2019-05-15T14:35:37.996Z,39.56
2019-05-15T14:38:06.863Z,37.82
2019-05-15T14:40:34.188Z,37.39
2019-05-15T14:43:01.640Z,36.75
2019-05-15T14:45:28.952Z,37.68
2019-05-15T14:47:58.143Z,37.84
2019-05-15T14:50:24.751Z,39.07
2019-05-15T14:52:52.080Z,38.99
2019-05-15T14:55:19.150Z,38.29
2019-05-15T14:57:50.743Z,38.14
2019-05-15T15:00:20.114Z,38.70
2019-05-15T15:02:45.531Z,38.45
2019-05-15T15:05:12.658Z,38.91
2019-05-15T15:07:39.704Z,38.04
2019-05-15T15:10:07.867Z,38.16
2019-05-15T15:12:35.598Z,38.66
2019-05-15T15:15:02.658Z,37.74
2019-05-15T15:17:29.693Z,38.03
2019-05-15T15:20:00.139Z,38.82
2019-05-15T15:22:28.309Z,40.24
2019-05-15T15:24:54.584Z,39.60
2019-05-15T15:27:21.624Z,39.48
2019-05-15T15:29:48.676Z,40.97
2019-05-15T15:32:16.792Z,41.39
2019-05-15T15:34:43.847Z,41.33
2019-05-15T15:37:11.200Z,40.13
2019-05-15T15:39:39.391Z,40.68
2019-05-15T15:42:08.517Z,39.80
2019-05-15T15:44:37.889Z,40.07
2019-05-15T15:47:04.245Z,40.31
2019-05-15T15:49:31.654Z,39.90
2019-05-15T15:51:58.935Z,39.78
2019-05-15T15:54:27.997Z,40.27
2019-05-15T15:56:54.726Z,40.45
2019-05-15T15:59:21.778Z,40.68
2019-05-15T16:01:49.668Z,35.90
2019-05-15T16:04:18.637Z,36.77
2019-05-15T16:06:48.360Z,37.54
2019-05-15T16:09:14.681Z,35.33
2019-05-15T16:11:42.049Z,34.69
2019-05-15T16:14:09.387Z,34.79
2019-05-15T16:16:38.059Z,33.27
2019-05-15T16:19:05.652Z,33.41
2019-05-15T16:21:32.707Z,35.63
2019-05-15T16:24:12.477Z,33.33
2019-05-15T16:26:29.193Z,33.31
2019-05-15T16:28:58.003Z,33.71
2019-05-15T16:31:25.145Z,33.44
2019-05-15T16:33:52.443Z,33.23
2019-05-15T16:36:19.696Z,32.86
2019-05-15T16:38:48.204Z,33.82
2019-05-15T16:41:15.482Z,34.42
2019-05-15T16:43:42.518Z,33.57
2019-05-15T16:46:09.810Z,33.37
2019-05-15T16:48:38.981Z,34.99
2019-05-15T16:51:05.894Z,33.67
2019-05-15T16:53:33.945Z,35.80
2019-05-15T16:56:01.301Z,35.81
2019-05-15T16:58:29.570Z,34.88
2019-05-15T17:00:58.529Z,35.79
2019-05-15T17:03:25.672Z,35.21
2019-05-15T17:05:53.098Z,35.95
2019-05-15T17:08:20.197Z,36.30
2019-05-15T17:10:48.291Z,35.93
2019-05-15T17:13:15.588Z,36.17
2019-05-15T17:15:42.638Z,37.97
2019-05-15T17:18:10.281Z,37.70
2019-05-15T17:20:37.564Z,39.53
2019-05-15T17:23:04.975Z,39.15
2019-05-15T17:25:32.351Z,40.67
2019-05-15T17:27:59.473Z,40.26
2019-05-15T17:30:29.839Z,41.03
2019-05-15T17:32:56.991Z,41.41
2019-05-15T17:35:24.033Z,41.92
2019-05-15T17:37:51.109Z,41.60
2019-05-15T17:40:18.161Z,42.09
2019-05-15T17:42:45.219Z,42.10
2019-05-15T17:45:12.275Z,42.24
2019-05-15T17:47:40.428Z,43.03
2019-05-15T17:50:08.447Z,43.53
2019-05-15T17:52:35.632Z,44.00
2019-05-15T17:55:02.694Z,42.90
2019-05-15T17:57:30.853Z,42.88
2019-05-15T17:59:58.995Z,43.03
2019-05-15T18:02:28.442Z,43.19
2019-05-15T18:04:54.854Z,42.62
2019-05-15T18:07:21.924Z,43.12
2019-05-15T18:09:54.103Z,44.19
2019-05-15T18:12:18.149Z,44.21
2019-05-15T18:14:47.608Z,43.25
2019-05-15T18:17:13.980Z,43.08
2019-05-15T18:19:41.333Z,43.31
2019-05-15T18:22:09.059Z,43.54
2019-05-15T18:24:38.321Z,44.31
2019-05-15T18:27:05.098Z,44.78
2019-05-15T18:29:32.145Z,44.38
2019-05-15T18:31:59.537Z,44.32
2019-05-15T18:34:28.755Z,44.95
2019-05-15T18:36:57.743Z,45.69
2019-05-15T18:39:24.467Z,45.64
2019-05-15T18:41:51.509Z,45.99
2019-05-15T18:44:19.000Z,45.14
2019-05-15T18:46:48.605Z,45.83
2019-05-15T18:49:17.834Z,46.35
2019-05-15T18:51:44.268Z,45.83
2019-05-15T18:54:11.652Z,46.32
2019-05-15T18:56:40.261Z,46.11
2019-05-15T18:59:08.517Z,46.69
2019-05-15T19:01:35.987Z,46.71
2019-05-15T19:04:03.531Z,47.06
2019-05-15T19:06:30.568Z,46.92
2019-05-15T19:08:57.628Z,47.19
2019-05-15T19:11:24.673Z,47.94
2019-05-15T19:13:51.725Z,48.03
2019-05-15T19:16:18.770Z,48.35
2019-05-15T19:18:47.780Z,48.61
2019-05-15T19:21:14.913Z,48.71
2019-05-15T19:23:42.492Z,49.21
2019-05-15T19:26:11.742Z,49.33
2019-05-15T19:28:39.222Z,49.63
2019-05-15T19:31:08.809Z,49.61
2019-05-15T19:33:38.188Z,50.46
2019-05-15T19:36:07.619Z,50.71
2019-05-15T19:38:34.321Z,51.12
2019-05-15T19:41:06.356Z,51.68
2019-05-15T19:43:30.737Z,51.91
2019-05-15T19:45:58.555Z,52.71
2019-05-15T19:48:25.634Z,53.51
2019-05-15T19:50:53.124Z,53.14
2019-05-15T19:53:20.475Z,53.49
2019-05-15T19:55:48.354Z,54.19
2019-05-15T19:58:18.145Z,54.87
2019-05-15T20:00:44.506Z,54.77
2019-05-15T20:03:13.189Z,54.91
2019-05-15T20:05:40.294Z,55.12
2019-05-15T20:08:07.800Z,55.19
2019-05-15T20:10:35.182Z,55.99
2019-05-15T20:13:02.496Z,56.24
2019-05-15T20:15:29.811Z,56.33
2019-05-15T20:17:57.300Z,56.30
2019-05-15T20:20:24.647Z,56.64
2019-05-15T20:22:52.104Z,56.95
2019-05-15T20:25:19.384Z,57.04
2019-05-15T20:27:48.134Z,57.48
2019-05-15T20:30:15.152Z,57.60
2019-05-15T20:32:42.259Z,57.62
2019-05-15T20:35:09.695Z,57.95
2019-05-15T20:37:39.082Z,58.02
2019-05-15T20:40:05.800Z,58.45
2019-05-15T20:42:33.227Z,58.43
2019-05-15T20:45:00.552Z,58.42
2019-05-15T20:47:28.074Z,58.49
2019-05-15T20:49:55.673Z,58.82
2019-05-15T20:52:22.716Z,59.11
2019-05-15T20:54:49.754Z,59.22
2019-05-15T20:57:17.140Z,59.25
2019-05-15T20:59:44.525Z,59.71
2019-05-15T21:02:11.959Z,59.67
2019-05-15T21:04:39.008Z,59.63
2019-05-15T21:07:07.892Z,59.58
2019-05-15T21:09:35.453Z,60.10
2019-05-15T21:12:02.809Z,59.98
2019-05-15T21:14:29.864Z,60.16
2019-05-15T21:16:59.011Z,60.63
2019-05-15T21:19:27.638Z,60.67
2019-05-15T21:21:54.694Z,60.54
2019-05-15T21:24:22.045Z,60.56
2019-05-15T21:26:49.075Z,60.69
2019-05-15T21:29:18.532Z,60.66
2019-05-15T21:31:45.688Z,61.11
2019-05-15T21:34:12.732Z,61.21
2019-05-15T21:36:39.767Z,61.21
2019-05-15T21:39:07.181Z,61.23
2019-05-15T21:41:34.736Z,61.10
2019-05-15T21:44:01.790Z,61.81
2019-05-15T21:46:30.165Z,61.35
2019-05-15T21:48:58.158Z,61.59
2019-05-15T21:51:28.127Z,61.68
2019-05-15T21:53:55.306Z,61.54
2019-05-15T21:56:22.340Z,61.98
2019-05-15T21:58:49.369Z,61.87
2019-05-15T22:01:19.672Z,62.45
2019-05-15T22:03:48.088Z,62.34
2019-05-15T22:06:14.870Z,62.45
2019-05-15T22:08:42.216Z,62.37
2019-05-15T22:11:09.567Z,62.26
2019-05-15T22:13:39.330Z,62.81
2019-05-15T22:16:08.111Z,62.89
2019-05-15T22:18:35.918Z,62.81
2019-05-15T22:21:05.016Z,62.84
2019-05-15T22:23:32.044Z,63.09
2019-05-15T22:25:59.098Z,63.16
2019-05-15T22:28:28.206Z,63.36
2019-05-15T22:30:55.648Z,63.86
2019-05-15T22:33:23.020Z,64.14
2019-05-15T22:35:50.325Z,64.27
2019-05-15T22:38:18.118Z,64.63
2019-05-15T22:40:45.801Z,64.50
2019-05-15T22:43:13.074Z,64.37
2019-05-15T22:45:40.412Z,64.93
2019-05-15T22:48:07.437Z,64.93
2019-05-15T22:50:34.816Z,64.76
2019-05-15T22:53:01.846Z,65.01
2019-05-15T22:55:29.244Z,65.22
2019-05-15T22:57:58.151Z,65.47
2019-05-15T23:00:25.365Z,65.39
2019-05-15T23:02:52.641Z,65.22
2019-05-15T23:05:27.726Z,65.45
2019-05-15T23:07:49.782Z,65.40
2019-05-15T23:10:17.158Z,65.55
2019-05-15T23:12:44.191Z,65.71
2019-05-15T23:15:11.217Z,65.89
2019-05-15T23:17:38.515Z,66.09
2019-05-15T23:20:05.971Z,66.14
2019-05-15T23:22:33.587Z,66.53
2019-05-15T23:25:00.976Z,66.52
2019-05-15T23:27:28.732Z,66.46
2019-05-15T23:29:58.183Z,66.56
2019-05-15T23:32:25.343Z,66.45
2019-05-15T23:34:52.385Z,66.44
2019-05-15T23:37:19.422Z,66.43
2019-05-15T23:39:48.702Z,66.60
2019-05-15T23:42:18.292Z,66.88
2019-05-15T23:44:45.123Z,66.89
2019-05-15T23:47:12.485Z,66.86
2019-05-15T23:49:39.833Z,66.79
2019-05-15T23:52:08.869Z,66.66
2019-05-15T23:54:35.879Z,66.54
2019-05-15T23:57:02.924Z,66.77
2019-05-15T23:59:29.962Z,66.71
